createdAt,value
2022-08-30T00:04:39.140Z,98375.47
2022-08-30T00:09:45.089Z,98373.88
2022-08-30T00:14:49.718Z,98370.88
2022-08-30T00:19:55.836Z,98353.75
2022-08-30T00:25:02.115Z,98356.41
2022-08-30T00:30:09.221Z,98355.16
2022-08-30T00:35:18.470Z,98354.16
2022-08-30T00:40:27.652Z,98351.88
2022-08-30T00:45:36.205Z,98348.81
2022-08-30T00:50:47.025Z,98348.50
2022-08-30T00:55:55.119Z,98353.03
2022-08-30T01:01:02.589Z,98355.41
2022-08-30T01:06:09.118Z,98353.97
2022-08-30T01:11:18.508Z,98366.59
2022-08-30T01:16:27.327Z,98360.03
2022-08-30T01:21:42.557Z,98351.28
2022-08-30T01:26:48.529Z,98362.81
2022-08-30T01:31:53.485Z,98368.81
2022-08-30T01:36:57.962Z,98370.47
2022-08-30T01:42:05.868Z,98368.91
2022-08-30T01:47:10.351Z,98373.25
2022-08-30T01:52:16.210Z,98376.88
2022-08-30T01:57:26.890Z,98371.03
2022-08-30T02:02:31.785Z,98371.03
2022-08-30T02:07:36.379Z,98359.81
2022-08-30T02:12:42.650Z,98369.50
2022-08-30T02:17:47.115Z,98375.44
2022-08-30T02:22:51.527Z,98370.44
2022-08-30T02:27:57.163Z,98364.69
2022-08-30T02:33:01.573Z,98366.78
2022-08-30T02:38:08.080Z,98378.28
2022-08-30T02:43:14.073Z,98367.47
2022-08-30T02:48:18.402Z,98362.44
2022-08-30T02:53:22.940Z,98356.97
2022-08-30T02:58:28.713Z,98354.69
2022-08-30T03:03:35.596Z,98345.22
2022-08-30T03:08:40.157Z,98338.34
2022-08-30T03:13:45.825Z,98337.16
2022-08-30T03:18:50.443Z,98326.47
2022-08-30T03:23:54.683Z,98324.28
2022-08-30T03:29:00.515Z,98325.25
2022-08-30T03:34:06.423Z,98335.94
2022-08-30T03:39:13.969Z,98330.28
2022-08-30T03:44:20.025Z,98328.72
2022-08-30T03:49:25.172Z,98332.56
2022-08-30T03:54:32.531Z,98340.44
2022-08-30T03:59:38.459Z,98354.69
2022-08-30T04:04:42.794Z,98355.19
2022-08-30T04:09:47.531Z,98361.69
2022-08-30T04:14:53.510Z,98362.56
2022-08-30T04:19:58.248Z,98367.34
2022-08-30T04:25:02.527Z,98351.75
2022-08-30T04:30:09.803Z,98359.75
2022-08-30T04:35:15.192Z,98357.16
2022-08-30T04:40:20.421Z,98364.56
2022-08-30T04:45:26.543Z,98351.91
2022-08-30T04:50:31.201Z,98355.94
2022-08-30T04:55:35.644Z,98363.56
2022-08-30T05:00:44.602Z,98366.25
2022-08-30T05:05:50.152Z,98367.31
2022-08-30T05:10:54.815Z,98374.53
2022-08-30T05:16:01.322Z,98369.09
2022-08-30T05:21:10.926Z,98375.47
2022-08-30T05:26:19.139Z,98367.31
2022-08-30T05:31:29.195Z,98373.88
2022-08-30T05:36:37.814Z,98370.13
2022-08-30T05:41:44.287Z,98385.28
2022-08-30T05:46:50.207Z,98381.16
2022-08-30T05:51:54.995Z,98389.22
2022-08-30T05:56:59.407Z,98378.47
2022-08-30T06:02:07.392Z,98380.28
2022-08-30T06:07:14.861Z,98374.47
2022-08-30T06:12:21.849Z,98375.78
2022-08-30T06:17:27.755Z,98369.88
2022-08-30T06:22:32.094Z,98372.53
2022-08-30T06:27:36.393Z,98369.09
2022-08-30T06:32:42.567Z,98364.22
2022-08-30T06:37:46.927Z,98369.47
2022-08-30T06:42:51.564Z,98355.06
2022-08-30T06:53:07.904Z,98362.69
2022-08-30T06:58:13.748Z,98367.47
2022-08-30T07:03:19.521Z,98372.63
2022-08-30T07:08:24.884Z,98373.28
2022-08-30T07:13:30.241Z,98373.00
2022-08-30T07:18:55.739Z,98367.84
2022-08-30T07:24:02.289Z,98359.63
2022-08-30T07:29:09.260Z,98360.78
2022-08-30T07:34:15.145Z,98359.25
2022-08-30T07:39:20.138Z,98359.47
2022-08-30T07:44:25.686Z,98361.13
2022-08-30T07:49:31.863Z,98361.19
2022-08-30T07:54:37.657Z,98368.06
2022-08-30T07:59:41.930Z,98371.97
2022-08-30T08:04:48.569Z,98359.06
2022-08-30T08:15:22.196Z,98367.44
2022-08-30T08:20:28.143Z,98369.22
2022-08-30T08:25:32.862Z,98366.13
2022-08-30T08:30:41.593Z,98359.47
2022-08-30T08:35:49.803Z,98356.03
2022-08-30T08:41:06.403Z,98348.16
2022-08-30T08:46:23.018Z,98349.72
2022-08-30T08:52:04.451Z,98354.22
2022-08-30T08:57:13.930Z,98349.13
2022-08-30T09:02:28.530Z,98341.56
2022-08-30T09:07:43.813Z,98338.69
2022-08-30T09:12:48.346Z,98338.09
2022-08-30T09:17:57.400Z,98339.13
2022-08-30T09:23:30.632Z,98327.47
2022-08-30T09:28:46.167Z,98334.59
2022-08-30T09:33:57.944Z,98330.13
2022-08-30T09:39:07.927Z,98323.19
2022-08-30T09:44:19.668Z,98310.22
2022-08-30T09:49:35.200Z,98311.13
2022-08-30T09:54:59.117Z,98298.44
2022-08-30T10:00:18.726Z,98306.50
2022-08-30T10:05:36.222Z,98296.00
2022-08-30T10:10:53.937Z,98285.97
2022-08-30T10:16:08.681Z,98280.59
2022-08-30T10:21:20.316Z,98266.19
2022-08-30T10:26:34.411Z,98270.88
2022-08-30T10:31:48.409Z,98277.22
2022-08-30T10:36:59.601Z,98272.72
2022-08-30T10:42:16.404Z,98269.72
2022-08-30T10:47:34.590Z,98261.66
2022-08-30T10:52:48.547Z,98263.59
2022-08-30T10:57:55.082Z,98259.44
2022-08-30T11:03:51.540Z,98260.53
2022-08-30T11:09:30.818Z,98256.09
2022-08-30T11:14:43.303Z,98247.25
2022-08-30T11:19:48.631Z,98254.84
2022-08-30T11:25:14.273Z,98243.69
2022-08-30T11:31:06.644Z,98241.38
2022-08-30T11:36:13.091Z,98236.06
2022-08-30T11:41:40.857Z,98232.22
2022-08-30T11:46:47.743Z,98235.09
2022-08-30T11:52:26.934Z,98220.34
2022-08-30T11:57:46.903Z,98217.63
2022-08-30T12:03:02.047Z,98210.63
2022-08-30T12:08:11.048Z,98205.03
2022-08-30T12:13:55.499Z,98200.94
2022-08-30T12:19:18.767Z,98194.59
2022-08-30T12:24:29.355Z,98202.13
2022-08-30T12:29:33.789Z,98195.47
2022-08-30T12:34:56.300Z,98189.41
2022-08-30T12:40:11.694Z,98191.19
2022-08-30T12:45:21.983Z,98194.22
2022-08-30T12:50:34.882Z,98192.56
2022-08-30T12:55:55.861Z,98191.66
2022-08-30T13:01:27.285Z,98178.22
2022-08-30T13:06:49.337Z,98167.88
2022-08-30T13:11:55.238Z,98166.97
2022-08-30T13:17:28.691Z,98146.84
2022-08-30T13:22:39.279Z,98142.94
2022-08-30T13:27:44.211Z,98126.19
2022-08-30T13:32:48.545Z,98116.22
2022-08-30T13:37:54.274Z,98115.81
2022-08-30T13:42:58.982Z,98106.50
2022-08-30T13:48:04.196Z,98095.88
2022-08-30T13:53:11.172Z,98101.00
2022-08-30T13:58:16.691Z,98105.44
2022-08-30T14:03:21.200Z,98121.72
2022-08-30T14:08:48.156Z,98120.81
2022-08-30T14:19:22.410Z,98110.50
2022-08-30T14:24:28.348Z,98114.06
2022-08-30T14:29:34.003Z,98109.41
2022-08-30T14:34:39.702Z,98104.66
2022-08-30T14:39:45.898Z,98102.66
2022-08-30T14:44:56.645Z,98102.13
2022-08-30T14:50:01.909Z,98101.88
2022-08-30T14:55:12.734Z,98101.28
2022-08-30T15:00:18.354Z,98085.47
2022-08-30T15:05:24.399Z,98076.22
2022-08-30T15:10:30.509Z,98076.38
2022-08-30T15:15:35.495Z,98080.91
2022-08-30T15:20:47.624Z,98076.00
2022-08-30T15:25:54.400Z,98069.13
2022-08-30T15:30:58.946Z,98063.56
2022-08-30T15:36:06.108Z,98071.34
2022-08-30T15:41:14.017Z,98062.16
2022-08-30T15:46:23.520Z,98066.94
2022-08-30T15:51:41.463Z,98076.22
2022-08-30T15:56:48.226Z,98085.66
2022-08-30T16:01:52.951Z,98083.41
2022-08-30T16:06:57.446Z,98079.94
2022-08-30T16:12:08.388Z,98091.09
2022-08-30T16:17:15.165Z,98089.69
2022-08-30T16:22:23.344Z,98102.81
2022-08-30T16:27:29.203Z,98107.72
2022-08-30T16:32:33.599Z,98113.03
2022-08-30T16:37:39.183Z,98109.84
2022-08-30T16:42:46.173Z,98120.41
2022-08-30T16:47:50.925Z,98110.97
2022-08-30T16:52:56.834Z,98121.22
2022-08-30T16:58:04.511Z,98124.72
2022-08-30T17:03:10.565Z,98134.34
2022-08-30T17:08:15.314Z,98136.69
2022-08-30T17:13:22.745Z,98162.03
2022-08-30T17:18:27.652Z,98163.56
2022-08-30T17:23:34.368Z,98163.22
2022-08-30T17:28:41.696Z,98159.97
2022-08-30T17:33:46.356Z,98164.69
2022-08-30T17:38:51.182Z,98187.38
2022-08-30T17:43:56.932Z,98198.41
2022-08-30T17:49:02.029Z,98200.03
2022-08-30T17:54:06.939Z,98188.19
2022-08-30T17:59:15.426Z,98184.34
2022-08-30T18:04:25.041Z,98201.59
2022-08-30T18:09:33.870Z,98212.22
2022-08-30T18:14:40.370Z,98212.03
2022-08-30T18:19:49.397Z,98218.13
2022-08-30T18:24:53.784Z,98231.19
2022-08-30T18:29:59.477Z,98236.94
2022-08-30T18:35:03.793Z,98238.78
2022-08-30T18:40:17.005Z,98245.94
2022-08-30T18:45:24.507Z,98262.50
2022-08-30T18:50:29.576Z,98269.16
2022-08-30T18:55:34.016Z,98277.03
2022-08-30T19:00:39.933Z,98278.94
2022-08-30T19:05:45.021Z,98299.56
2022-08-30T19:10:49.820Z,98311.38
2022-08-30T19:15:55.937Z,98326.56
2022-08-30T19:21:01.080Z,98346.53
2022-08-30T19:26:07.353Z,98355.16
2022-08-30T19:31:16.784Z,98368.13
2022-08-30T19:36:21.592Z,98368.47
2022-08-30T19:41:26.157Z,98362.03
2022-08-30T19:46:33.102Z,98363.19
2022-08-30T19:51:37.865Z,98366.81
2022-08-30T19:56:42.664Z,98375.50
2022-08-30T20:01:50.208Z,98376.81
2022-08-30T20:06:55.140Z,98380.84
2022-08-30T20:11:59.590Z,98386.22
2022-08-30T20:17:05.938Z,98373.56
2022-08-30T20:22:16.557Z,98377.63
2022-08-30T20:27:21.153Z,98375.97
2022-08-30T20:32:27.843Z,98369.69
2022-08-30T20:37:33.329Z,98360.56
2022-08-30T20:42:41.471Z,98365.16
2022-08-30T20:47:47.306Z,98362.53
2022-08-30T20:52:51.687Z,98351.03
2022-08-30T20:57:56.407Z,98348.31
2022-08-30T21:03:02.366Z,98348.03
2022-08-30T21:08:15.500Z,98350.06
2022-08-30T21:13:19.971Z,98340.03
2022-08-30T21:18:29.538Z,98338.03
2022-08-30T21:23:33.922Z,98340.91
2022-08-30T21:28:40.124Z,98348.19
2022-08-30T21:33:47.669Z,98342.03
2022-08-30T21:38:52.648Z,98350.19
2022-08-30T21:43:58.428Z,98343.63
2022-08-30T21:49:09.619Z,98350.41
2022-08-30T21:54:17.063Z,98365.13
2022-08-30T21:59:22.676Z,98371.16
2022-08-30T22:04:29.466Z,98379.03
2022-08-30T22:09:33.934Z,98396.50
2022-08-30T22:14:38.721Z,98401.94
2022-08-30T22:19:45.049Z,98407.69
2022-08-30T22:24:49.925Z,98403.97
2022-08-30T22:29:54.379Z,98413.72
2022-08-30T22:35:00.075Z,98405.13
2022-08-30T22:40:06.829Z,98418.00
2022-08-30T22:45:13.242Z,98419.44
2022-08-30T22:50:19.544Z,98427.44
2022-08-30T22:55:25.081Z,98422.47
2022-08-30T23:00:29.508Z,98424.16
2022-08-30T23:05:38.636Z,98412.03
2022-08-30T23:10:44.409Z,98413.03
2022-08-30T23:15:48.752Z,98412.31
2022-08-30T23:20:54.637Z,98414.03
2022-08-30T23:26:19.544Z,98414.47
2022-08-30T23:31:41.768Z,98405.47
2022-08-30T23:37:05.267Z,98406.75
2022-08-30T23:42:26.790Z,98396.63
2022-08-30T23:47:48.713Z,98391.47
2022-08-30T23:53:12.112Z,98394.78
2022-08-30T23:58:33.951Z,98401.91
